sensor_id;sensor_type;location;lat;lon;timestamp;P1;durP1;ratioP1;P2;durP2;ratioP2
12980;SDS011;6555;50.468;8.480;2022-09-28T00:00:49;1.10;;;1.00;;
12980;SDS011;6555;50.468;8.480;2022-09-28T00:05:52;1.50;;;1.20;;
12980;SDS011;6555;50.468;8.480;2022-09-28T00:10:55;1.20;;;1.10;;
12980;SDS011;6555;50.468;8.480;2022-09-28T00:16:00;1.43;;;1.30;;
12980;SDS011;6555;50.468;8.480;2022-09-28T00:21:05;2.17;;;1.27;;
12980;SDS011;6555;50.468;8.480;2022-09-28T00:26:10;1.50;;;1.20;;
12980;SDS011;6555;50.468;8.480;2022-09-28T00:31:14;1.50;;;1.10;;
12980;SDS011;6555;50.468;8.480;2022-09-28T00:36:18;1.10;;;1.00;;
12980;SDS011;6555;50.468;8.480;2022-09-28T00:41:21;0.90;;;0.90;;
12980;SDS011;6555;50.468;8.480;2022-09-28T00:46:27;1.20;;;0.93;;
12980;SDS011;6555;50.468;8.480;2022-09-28T00:51:34;1.20;;;1.00;;
12980;SDS011;6555;50.468;8.480;2022-09-28T00:56:39;1.40;;;0.80;;
12980;SDS011;6555;50.468;8.480;2022-09-28T01:01:45;0.83;;;0.60;;
12980;SDS011;6555;50.468;8.480;2022-09-28T01:06:49;0.70;;;0.67;;
12980;SDS011;6555;50.468;8.480;2022-09-28T01:11:53;0.70;;;0.70;;
12980;SDS011;6555;50.468;8.480;2022-09-28T01:16:59;0.50;;;0.50;;
12980;SDS011;6555;50.468;8.480;2022-09-28T01:22:19;0.40;;;0.40;;
12980;SDS011;6555;50.468;8.480;2022-09-28T01:27:31;0.50;;;0.50;;
12980;SDS011;6555;50.468;8.480;2022-09-28T01:32:37;0.37;;;0.37;;
12980;SDS011;6555;50.468;8.480;2022-09-28T01:37:50;0.40;;;0.40;;
12980;SDS011;6555;50.468;8.480;2022-09-28T01:43:00;0.40;;;0.40;;
12980;SDS011;6555;50.468;8.480;2022-09-28T01:48:07;0.50;;;0.50;;
12980;SDS011;6555;50.468;8.480;2022-09-28T01:53:14;0.43;;;0.43;;
12980;SDS011;6555;50.468;8.480;2022-09-28T01:58:23;0.30;;;0.30;;
12980;SDS011;6555;50.468;8.480;2022-09-28T02:03:32;0.40;;;0.40;;
12980;SDS011;6555;50.468;8.480;2022-09-28T02:08:42;0.40;;;0.40;;
12980;SDS011;6555;50.468;8.480;2022-09-28T02:13:53;1.50;;;0.27;;
12980;SDS011;6555;50.468;8.480;2022-09-28T02:19:00;0.40;;;0.40;;
12980;SDS011;6555;50.468;8.480;2022-09-28T02:24:08;0.67;;;0.50;;
12980;SDS011;6555;50.468;8.480;2022-09-28T02:29:23;0.57;;;0.57;;
12980;SDS011;6555;50.468;8.480;2022-09-28T02:34:26;0.43;;;0.43;;
12980;SDS011;6555;50.468;8.480;2022-09-28T02:39:29;0.40;;;0.40;;
12980;SDS011;6555;50.468;8.480;2022-09-28T02:44:45;0.50;;;0.50;;
12980;SDS011;6555;50.468;8.480;2022-09-28T02:50:10;0.50;;;0.50;;
12980;SDS011;6555;50.468;8.480;2022-09-28T02:55:24;1.37;;;0.80;;
12980;SDS011;6555;50.468;8.480;2022-09-28T03:00:40;0.50;;;0.50;;
12980;SDS011;6555;50.468;8.480;2022-09-28T03:05:52;0.67;;;0.67;;
12980;SDS011;6555;50.468;8.480;2022-09-28T03:11:08;0.60;;;0.60;;
12980;SDS011;6555;50.468;8.480;2022-09-28T03:16:18;0.90;;;0.80;;
12980;SDS011;6555;50.468;8.480;2022-09-28T03:21:23;0.60;;;0.60;;
12980;SDS011;6555;50.468;8.480;2022-09-28T03:26:26;0.50;;;0.50;;
12980;SDS011;6555;50.468;8.480;2022-09-28T03:31:30;0.90;;;0.70;;
12980;SDS011;6555;50.468;8.480;2022-09-28T03:36:34;0.70;;;0.70;;
12980;SDS011;6555;50.468;8.480;2022-09-28T03:41:38;1.27;;;1.00;;
12980;SDS011;6555;50.468;8.480;2022-09-28T03:46:42;0.90;;;0.80;;
12980;SDS011;6555;50.468;8.480;2022-09-28T03:51:46;1.13;;;0.83;;
12980;SDS011;6555;50.468;8.480;2022-09-28T03:56:49;1.13;;;0.87;;
12980;SDS011;6555;50.468;8.480;2022-09-28T04:01:53;0.70;;;0.70;;
12980;SDS011;6555;50.468;8.480;2022-09-28T04:06:56;1.70;;;0.97;;
12980;SDS011;6555;50.468;8.480;2022-09-28T04:12:00;2.80;;;2.03;;
12980;SDS011;6555;50.468;8.480;2022-09-28T04:17:07;2.97;;;2.60;;
12980;SDS011;6555;50.468;8.480;2022-09-28T04:22:11;1.40;;;1.30;;
12980;SDS011;6555;50.468;8.480;2022-09-28T04:27:14;1.17;;;1.07;;
12980;SDS011;6555;50.468;8.480;2022-09-28T04:32:37;0.80;;;0.80;;
12980;SDS011;6555;50.468;8.480;2022-09-28T04:37:40;1.00;;;0.90;;
12980;SDS011;6555;50.468;8.480;2022-09-28T04:42:43;0.80;;;0.80;;
12980;SDS011;6555;50.468;8.480;2022-09-28T04:47:48;1.00;;;0.90;;
12980;SDS011;6555;50.468;8.480;2022-09-28T04:53:18;1.20;;;1.00;;
12980;SDS011;6555;50.468;8.480;2022-09-28T04:58:21;0.67;;;0.67;;
12980;SDS011;6555;50.468;8.480;2022-09-28T05:03:26;0.67;;;0.63;;
12980;SDS011;6555;50.468;8.480;2022-09-28T05:08:49;1.73;;;0.90;;
12980;SDS011;6555;50.468;8.480;2022-09-28T05:13:54;0.80;;;0.80;;
12980;SDS011;6555;50.468;8.480;2022-09-28T05:18:59;1.10;;;1.00;;
12980;SDS011;6555;50.468;8.480;2022-09-28T05:24:02;0.80;;;0.77;;
12980;SDS011;6555;50.468;8.480;2022-09-28T05:29:10;2.20;;;0.80;;
12980;SDS011;6555;50.468;8.480;2022-09-28T05:34:46;2.27;;;1.00;;
12980;SDS011;6555;50.468;8.480;2022-09-28T05:39:57;0.80;;;0.80;;
12980;SDS011;6555;50.468;8.480;2022-09-28T05:45:00;1.30;;;0.87;;
12980;SDS011;6555;50.468;8.480;2022-09-28T05:50:06;0.70;;;0.70;;
12980;SDS011;6555;50.468;8.480;2022-09-28T05:55:12;2.57;;;0.93;;
12980;SDS011;6555;50.468;8.480;2022-09-28T06:00:15;0.80;;;0.80;;
12980;SDS011;6555;50.468;8.480;2022-09-28T06:05:27;1.00;;;0.90;;
12980;SDS011;6555;50.468;8.480;2022-09-28T06:10:31;1.77;;;0.67;;
12980;SDS011;6555;50.468;8.480;2022-09-28T06:15:36;1.07;;;0.97;;
12980;SDS011;6555;50.468;8.480;2022-09-28T06:20:41;1.10;;;1.00;;
12980;SDS011;6555;50.468;8.480;2022-09-28T06:25:49;0.73;;;0.70;;
12980;SDS011;6555;50.468;8.480;2022-09-28T06:30:52;1.40;;;1.00;;
12980;SDS011;6555;50.468;8.480;2022-09-28T06:35:58;1.07;;;0.80;;
12980;SDS011;6555;50.468;8.480;2022-09-28T06:41:01;0.70;;;0.70;;
12980;SDS011;6555;50.468;8.480;2022-09-28T06:46:05;1.00;;;0.90;;
12980;SDS011;6555;50.468;8.480;2022-09-28T06:51:29;1.93;;;1.03;;
12980;SDS011;6555;50.468;8.480;2022-09-28T06:56:51;1.13;;;1.03;;
12980;SDS011;6555;50.468;8.480;2022-09-28T07:01:55;1.77;;;1.20;;
12980;SDS011;6555;50.468;8.480;2022-09-28T07:07:19;0.50;;;0.50;;
12980;SDS011;6555;50.468;8.480;2022-09-28T07:12:34;1.20;;;1.00;;
12980;SDS011;6555;50.468;8.480;2022-09-28T07:17:59;1.43;;;0.87;;
12980;SDS011;6555;50.468;8.480;2022-09-28T07:23:06;0.80;;;0.80;;
12980;SDS011;6555;50.468;8.480;2022-09-28T07:28:38;0.60;;;0.57;;
12980;SDS011;6555;50.468;8.480;2022-09-28T07:33:52;1.10;;;0.63;;
12980;SDS011;6555;50.468;8.480;2022-09-28T07:39:09;0.80;;;0.77;;
12980;SDS011;6555;50.468;8.480;2022-09-28T07:44:13;0.93;;;0.83;;
12980;SDS011;6555;50.468;8.480;2022-09-28T07:49:18;0.87;;;0.87;;
12980;SDS011;6555;50.468;8.480;2022-09-28T07:54:49;1.30;;;0.60;;
12980;SDS011;6555;50.468;8.480;2022-09-28T08:00:11;1.07;;;0.97;;
12980;SDS011;6555;50.468;8.480;2022-09-28T08:05:19;1.60;;;0.77;;
12980;SDS011;6555;50.468;8.480;2022-09-28T08:10:23;1.43;;;0.80;;
12980;SDS011;6555;50.468;8.480;2022-09-28T08:16:05;2.17;;;0.87;;
12980;SDS011;6555;50.468;8.480;2022-09-28T08:21:25;1.27;;;0.90;;
12980;SDS011;6555;50.468;8.480;2022-09-28T08:26:48;0.80;;;0.80;;
12980;SDS011;6555;50.468;8.480;2022-09-28T08:31:51;1.00;;;0.90;;
12980;SDS011;6555;50.468;8.480;2022-09-28T08:37:19;1.70;;;1.10;;
12980;SDS011;6555;50.468;8.480;2022-09-28T08:42:42;1.20;;;1.07;;
12980;SDS011;6555;50.468;8.480;2022-09-28T08:48:13;0.70;;;0.70;;
12980;SDS011;6555;50.468;8.480;2022-09-28T08:53:56;1.10;;;1.00;;
12980;SDS011;6555;50.468;8.480;2022-09-28T08:59:10;1.00;;;0.93;;
12980;SDS011;6555;50.468;8.480;2022-09-28T09:04:18;1.70;;;0.90;;
12980;SDS011;6555;50.468;8.480;2022-09-28T09:09:46;0.87;;;0.73;;
12980;SDS011;6555;50.468;8.480;2022-09-28T09:15:08;0.73;;;0.73;;
12980;SDS011;6555;50.468;8.480;2022-09-28T09:20:49;1.37;;;0.60;;
12980;SDS011;6555;50.468;8.480;2022-09-28T09:26:03;0.80;;;0.80;;
12980;SDS011;6555;50.468;8.480;2022-09-28T09:31:23;1.17;;;1.00;;
12980;SDS011;6555;50.468;8.480;2022-09-28T09:36:43;0.83;;;0.60;;
12980;SDS011;6555;50.468;8.480;2022-09-28T09:42:36;1.00;;;0.90;;
12980;SDS011;6555;50.468;8.480;2022-09-28T09:48:10;0.63;;;0.53;;
12980;SDS011;6555;50.468;8.480;2022-09-28T09:53:22;0.70;;;0.70;;
12980;SDS011;6555;50.468;8.480;2022-09-28T09:58:30;1.03;;;0.60;;
12980;SDS011;6555;50.468;8.480;2022-09-28T10:04:13;0.70;;;0.50;;
12980;SDS011;6555;50.468;8.480;2022-09-28T10:09:24;0.77;;;0.50;;
12980;SDS011;6555;50.468;8.480;2022-09-28T10:14:42;0.40;;;0.40;;
12980;SDS011;6555;50.468;8.480;2022-09-28T10:19:48;0.80;;;0.67;;
12980;SDS011;6555;50.468;8.480;2022-09-28T10:25:11;0.97;;;0.60;;
12980;SDS011;6555;50.468;8.480;2022-09-28T10:30:17;0.30;;;0.30;;
12980;SDS011;6555;50.468;8.480;2022-09-28T10:35:25;0.63;;;0.50;;
12980;SDS011;6555;50.468;8.480;2022-09-28T10:40:37;0.57;;;0.50;;
12980;SDS011;6555;50.468;8.480;2022-09-28T10:45:45;0.50;;;0.50;;
12980;SDS011;6555;50.468;8.480;2022-09-28T10:51:01;0.93;;;0.60;;
12980;SDS011;6555;50.468;8.480;2022-09-28T10:56:17;2.23;;;0.60;;
12980;SDS011;6555;50.468;8.480;2022-09-28T11:01:29;0.47;;;0.47;;
12980;SDS011;6555;50.468;8.480;2022-09-28T11:06:46;0.40;;;0.40;;
12980;SDS011;6555;50.468;8.480;2022-09-28T11:12:02;0.60;;;0.50;;
12980;SDS011;6555;50.468;8.480;2022-09-28T11:17:13;0.33;;;0.33;;
12980;SDS011;6555;50.468;8.480;2022-09-28T11:22:20;0.50;;;0.40;;
12980;SDS011;6555;50.468;8.480;2022-09-28T11:27:30;0.50;;;0.50;;
12980;SDS011;6555;50.468;8.480;2022-09-28T11:32:38;0.30;;;0.30;;
12980;SDS011;6555;50.468;8.480;2022-09-28T11:37:58;0.50;;;0.50;;
12980;SDS011;6555;50.468;8.480;2022-09-28T11:43:42;0.60;;;0.60;;
12980;SDS011;6555;50.468;8.480;2022-09-28T11:48:53;0.33;;;0.33;;
12980;SDS011;6555;50.468;8.480;2022-09-28T11:54:01;0.70;;;0.60;;
12980;SDS011;6555;50.468;8.480;2022-09-28T11:59:16;0.50;;;0.50;;
12980;SDS011;6555;50.468;8.480;2022-09-28T12:04:27;0.30;;;0.30;;
12980;SDS011;6555;50.468;8.480;2022-09-28T12:09:39;0.53;;;0.53;;
12980;SDS011;6555;50.468;8.480;2022-09-28T12:14:54;0.70;;;0.50;;
12980;SDS011;6555;50.468;8.480;2022-09-28T12:20:02;0.67;;;0.67;;
12980;SDS011;6555;50.468;8.480;2022-09-28T12:25:16;0.80;;;0.80;;
12980;SDS011;6555;50.468;8.480;2022-09-28T12:30:23;1.00;;;0.73;;
12980;SDS011;6555;50.468;8.480;2022-09-28T12:35:28;1.27;;;1.00;;
12980;SDS011;6555;50.468;8.480;2022-09-28T12:40:44;0.83;;;0.83;;
12980;SDS011;6555;50.468;8.480;2022-09-28T12:51:34;1.13;;;1.03;;
12980;SDS011;6555;50.468;8.480;2022-09-28T12:56:48;0.60;;;0.60;;
12980;SDS011;6555;50.468;8.480;2022-09-28T13:02:11;0.30;;;0.30;;
12980;SDS011;6555;50.468;8.480;2022-09-28T13:07:29;0.60;;;0.60;;
12980;SDS011;6555;50.468;8.480;2022-09-28T13:12:42;0.50;;;0.50;;
12980;SDS011;6555;50.468;8.480;2022-09-28T13:18:01;0.60;;;0.53;;
12980;SDS011;6555;50.468;8.480;2022-09-28T13:23:14;0.40;;;0.40;;
12980;SDS011;6555;50.468;8.480;2022-09-28T13:28:22;0.40;;;0.40;;
12980;SDS011;6555;50.468;8.480;2022-09-28T13:33:29;0.60;;;0.60;;
12980;SDS011;6555;50.468;8.480;2022-09-28T13:43:58;0.53;;;0.53;;
12980;SDS011;6555;50.468;8.480;2022-09-28T13:49:14;0.50;;;0.50;;
12980;SDS011;6555;50.468;8.480;2022-09-28T13:54:33;0.40;;;0.40;;
12980;SDS011;6555;50.468;8.480;2022-09-28T13:59:50;0.60;;;0.60;;
12980;SDS011;6555;50.468;8.480;2022-09-28T14:10:48;1.57;;;1.00;;
12980;SDS011;6555;50.468;8.480;2022-09-28T14:15:54;1.40;;;0.70;;
12980;SDS011;6555;50.468;8.480;2022-09-28T14:21:36;1.07;;;0.83;;
12980;SDS011;6555;50.468;8.480;2022-09-28T14:27:05;0.57;;;0.57;;
12980;SDS011;6555;50.468;8.480;2022-09-28T14:32:31;0.83;;;0.60;;
12980;SDS011;6555;50.468;8.480;2022-09-28T14:37:37;0.33;;;0.33;;
12980;SDS011;6555;50.468;8.480;2022-09-28T14:43:20;0.57;;;0.57;;
12980;SDS011;6555;50.468;8.480;2022-09-28T14:48:41;0.40;;;0.40;;
12980;SDS011;6555;50.468;8.480;2022-09-28T14:53:49;0.63;;;0.60;;
12980;SDS011;6555;50.468;8.480;2022-09-28T14:58:53;0.60;;;0.60;;
12980;SDS011;6555;50.468;8.480;2022-09-28T15:04:01;0.50;;;0.50;;
12980;SDS011;6555;50.468;8.480;2022-09-28T15:14:30;0.40;;;0.30;;
12980;SDS011;6555;50.468;8.480;2022-09-28T15:19:48;0.43;;;0.43;;
12980;SDS011;6555;50.468;8.480;2022-09-28T15:24:58;1.73;;;0.60;;
12980;SDS011;6555;50.468;8.480;2022-09-28T15:30:14;0.77;;;0.40;;
12980;SDS011;6555;50.468;8.480;2022-09-28T15:35:24;0.30;;;0.30;;
12980;SDS011;6555;50.468;8.480;2022-09-28T15:40:30;0.20;;;0.20;;
12980;SDS011;6555;50.468;8.480;2022-09-28T15:45:35;0.30;;;0.30;;
12980;SDS011;6555;50.468;8.480;2022-09-28T15:50:42;0.57;;;0.37;;
12980;SDS011;6555;50.468;8.480;2022-09-28T15:56:00;0.57;;;0.57;;
12980;SDS011;6555;50.468;8.480;2022-09-28T16:01:19;1.70;;;0.43;;
12980;SDS011;6555;50.468;8.480;2022-09-28T16:06:38;0.40;;;0.40;;
12980;SDS011;6555;50.468;8.480;2022-09-28T16:11:42;0.50;;;0.50;;
12980;SDS011;6555;50.468;8.480;2022-09-28T16:16:45;1.53;;;0.73;;
12980;SDS011;6555;50.468;8.480;2022-09-28T16:21:51;1.17;;;1.07;;
12980;SDS011;6555;50.468;8.480;2022-09-28T16:26:56;1.30;;;1.20;;
12980;SDS011;6555;50.468;8.480;2022-09-28T16:37:36;0.77;;;0.70;;
12980;SDS011;6555;50.468;8.480;2022-09-28T16:42:43;0.60;;;0.60;;
12980;SDS011;6555;50.468;8.480;2022-09-28T16:47:49;0.60;;;0.60;;
12980;SDS011;6555;50.468;8.480;2022-09-28T16:52:59;0.50;;;0.50;;
12980;SDS011;6555;50.468;8.480;2022-09-28T16:58:24;0.53;;;0.40;;
12980;SDS011;6555;50.468;8.480;2022-09-28T17:03:28;0.70;;;0.50;;
12980;SDS011;6555;50.468;8.480;2022-09-28T17:08:32;0.30;;;0.30;;
12980;SDS011;6555;50.468;8.480;2022-09-28T17:13:36;0.57;;;0.50;;
12980;SDS011;6555;50.468;8.480;2022-09-28T17:18:39;0.30;;;0.30;;
12980;SDS011;6555;50.468;8.480;2022-09-28T17:23:43;0.60;;;0.50;;
12980;SDS011;6555;50.468;8.480;2022-09-28T17:28:47;0.60;;;0.50;;
12980;SDS011;6555;50.468;8.480;2022-09-28T17:33:50;0.20;;;0.20;;
12980;SDS011;6555;50.468;8.480;2022-09-28T17:38:56;0.40;;;0.40;;
12980;SDS011;6555;50.468;8.480;2022-09-28T17:43:59;0.27;;;0.27;;
12980;SDS011;6555;50.468;8.480;2022-09-28T17:49:04;0.27;;;0.27;;
12980;SDS011;6555;50.468;8.480;2022-09-28T17:54:09;0.27;;;0.27;;
12980;SDS011;6555;50.468;8.480;2022-09-28T17:59:15;0.37;;;0.37;;
12980;SDS011;6555;50.468;8.480;2022-09-28T18:04:19;0.40;;;0.40;;
12980;SDS011;6555;50.468;8.480;2022-09-28T18:09:43;1.70;;;0.37;;
12980;SDS011;6555;50.468;8.480;2022-09-28T18:14:46;1.80;;;0.60;;
12980;SDS011;6555;50.468;8.480;2022-09-28T18:19:49;0.30;;;0.30;;
12980;SDS011;6555;50.468;8.480;2022-09-28T18:24:53;1.37;;;0.47;;
12980;SDS011;6555;50.468;8.480;2022-09-28T18:29:56;0.33;;;0.33;;
12980;SDS011;6555;50.468;8.480;2022-09-28T18:34:59;0.13;;;0.13;;
12980;SDS011;6555;50.468;8.480;2022-09-28T18:40:04;0.20;;;0.20;;
12980;SDS011;6555;50.468;8.480;2022-09-28T18:45:08;0.40;;;0.40;;
12980;SDS011;6555;50.468;8.480;2022-09-28T18:50:12;0.47;;;0.47;;
12980;SDS011;6555;50.468;8.480;2022-09-28T18:55:17;0.80;;;0.80;;
12980;SDS011;6555;50.468;8.480;2022-09-28T19:00:20;1.17;;;1.07;;
12980;SDS011;6555;50.468;8.480;2022-09-28T19:05:23;3.27;;;1.20;;
12980;SDS011;6555;50.468;8.480;2022-09-28T19:10:29;0.83;;;0.83;;
12980;SDS011;6555;50.468;8.480;2022-09-28T19:15:31;1.10;;;1.00;;
12980;SDS011;6555;50.468;8.480;2022-09-28T19:20:34;0.90;;;0.80;;
12980;SDS011;6555;50.468;8.480;2022-09-28T19:25:39;0.77;;;0.77;;
12980;SDS011;6555;50.468;8.480;2022-09-28T19:30:42;1.30;;;1.20;;
12980;SDS011;6555;50.468;8.480;2022-09-28T19:35:52;0.70;;;0.70;;
12980;SDS011;6555;50.468;8.480;2022-09-28T19:40:58;1.10;;;1.00;;
12980;SDS011;6555;50.468;8.480;2022-09-28T19:46:02;2.13;;;0.90;;
12980;SDS011;6555;50.468;8.480;2022-09-28T19:51:05;0.80;;;0.80;;
12980;SDS011;6555;50.468;8.480;2022-09-28T19:56:10;0.80;;;0.70;;
12980;SDS011;6555;50.468;8.480;2022-09-28T20:01:13;1.60;;;1.50;;
12980;SDS011;6555;50.468;8.480;2022-09-28T20:06:16;1.40;;;1.20;;
12980;SDS011;6555;50.468;8.480;2022-09-28T20:11:20;0.87;;;0.87;;
12980;SDS011;6555;50.468;8.480;2022-09-28T20:16:24;0.53;;;0.53;;
12980;SDS011;6555;50.468;8.480;2022-09-28T20:21:29;0.50;;;0.50;;
12980;SDS011;6555;50.468;8.480;2022-09-28T20:26:33;0.53;;;0.53;;
12980;SDS011;6555;50.468;8.480;2022-09-28T20:31:38;0.50;;;0.50;;
12980;SDS011;6555;50.468;8.480;2022-09-28T20:36:42;0.50;;;0.50;;
12980;SDS011;6555;50.468;8.480;2022-09-28T20:41:47;0.80;;;0.53;;
12980;SDS011;6555;50.468;8.480;2022-09-28T20:46:50;0.50;;;0.43;;
12980;SDS011;6555;50.468;8.480;2022-09-28T20:51:53;0.57;;;0.43;;
12980;SDS011;6555;50.468;8.480;2022-09-28T20:56:57;0.50;;;0.47;;
12980;SDS011;6555;50.468;8.480;2022-09-28T21:02:00;0.77;;;0.50;;
12980;SDS011;6555;50.468;8.480;2022-09-28T21:07:03;0.57;;;0.57;;
12980;SDS011;6555;50.468;8.480;2022-09-28T21:12:07;0.60;;;0.60;;
12980;SDS011;6555;50.468;8.480;2022-09-28T21:17:10;0.70;;;0.70;;
12980;SDS011;6555;50.468;8.480;2022-09-28T21:22:13;0.40;;;0.40;;
12980;SDS011;6555;50.468;8.480;2022-09-28T21:27:18;0.40;;;0.40;;
12980;SDS011;6555;50.468;8.480;2022-09-28T21:32:21;0.80;;;0.77;;
12980;SDS011;6555;50.468;8.480;2022-09-28T21:37:24;0.40;;;0.40;;
12980;SDS011;6555;50.468;8.480;2022-09-28T21:42:28;0.40;;;0.40;;
12980;SDS011;6555;50.468;8.480;2022-09-28T21:47:31;0.63;;;0.50;;
12980;SDS011;6555;50.468;8.480;2022-09-28T21:52:34;0.50;;;0.50;;
12980;SDS011;6555;50.468;8.480;2022-09-28T21:57:38;0.60;;;0.60;;
12980;SDS011;6555;50.468;8.480;2022-09-28T22:02:42;0.87;;;0.87;;
12980;SDS011;6555;50.468;8.480;2022-09-28T22:07:45;1.20;;;1.10;;
12980;SDS011;6555;50.468;8.480;2022-09-28T22:12:49;0.60;;;0.60;;
12980;SDS011;6555;50.468;8.480;2022-09-28T22:17:52;0.70;;;0.70;;
12980;SDS011;6555;50.468;8.480;2022-09-28T22:22:55;1.83;;;0.93;;
12980;SDS011;6555;50.468;8.480;2022-09-28T22:28:00;1.37;;;1.27;;
12980;SDS011;6555;50.468;8.480;2022-09-28T22:33:03;1.57;;;1.40;;
12980;SDS011;6555;50.468;8.480;2022-09-28T22:38:06;1.90;;;1.57;;
12980;SDS011;6555;50.468;8.480;2022-09-28T22:43:10;1.60;;;0.90;;
12980;SDS011;6555;50.468;8.480;2022-09-28T22:48:13;1.50;;;1.37;;
12980;SDS011;6555;50.468;8.480;2022-09-28T22:53:16;0.87;;;0.87;;
12980;SDS011;6555;50.468;8.480;2022-09-28T22:58:20;1.40;;;1.13;;
12980;SDS011;6555;50.468;8.480;2022-09-28T23:03:23;2.53;;;1.20;;
12980;SDS011;6555;50.468;8.480;2022-09-28T23:08:26;0.80;;;0.80;;
12980;SDS011;6555;50.468;8.480;2022-09-28T23:13:31;0.93;;;0.90;;
12980;SDS011;6555;50.468;8.480;2022-09-28T23:18:36;1.03;;;0.73;;
12980;SDS011;6555;50.468;8.480;2022-09-28T23:23:41;2.30;;;0.87;;
12980;SDS011;6555;50.468;8.480;2022-09-28T23:28:45;0.80;;;0.80;;
12980;SDS011;6555;50.468;8.480;2022-09-28T23:33:49;0.60;;;0.60;;
12980;SDS011;6555;50.468;8.480;2022-09-28T23:38:52;1.23;;;0.80;;
12980;SDS011;6555;50.468;8.480;2022-09-28T23:43:57;0.70;;;0.70;;
12980;SDS011;6555;50.468;8.480;2022-09-28T23:49:00;0.50;;;0.50;;
12980;SDS011;6555;50.468;8.480;2022-09-28T23:54:03;0.40;;;0.40;;
12980;SDS011;6555;50.468;8.480;2022-09-28T23:59:08;0.70;;;0.70;;
